Aeroporto :
LOGIN :

Iscrizione | Disclaimer

   EN    FR    IT 

 










Sommario :    VFR   VFR Marginale   IFR   IFR Intensivo   IFR Molto Intensivo
Visibilità : 
Base nubi : 
>= 8 km
>= 3000ft
5 / 8 km
1000 / 3000 ft
1500m / 5 km
500 / 1000 ft
800 / 1500m
200 / 500 ft
< 800m
< 200 ft
Simboli :   Temporali  Nebbia  Neve Forte  Precipitazioni Forti  Vento > 20 kt
SIGMETs :   Varie  Temporali  Ghiacco  Turbolenza  Onda orograficha  Ceneri Vulcaniche






- Altitudine del aeroporto : 194 ft


EBCV - Chièvres

ULTIMO METAR :
  • 141222Z AUTO 22016KT 4600 -RA OVC022/// 07/05 Q0997 GRN

METARs OBSOLETI :
  • 141208Z AUTO 21014KT 4400 -RA OVC024/// 07/05 Q0996 GRN
  • 141155Z AUTO 22011KT 5000 -RASN OVC023/// 06/05 Q0996 WHT
  • 141133Z AUTO 23015KT 9999 -RA BKN024/// 07/05 Q0996 WHT
  • 141055Z AUTO 22015KT 9999 SCT050/// BKN100/// 07/03 Q0997 BLU
  • 141025Z AUTO 22012KT 9999 SCT100/// 07/02 Q0997 BLU
  • 140955Z AUTO 24010KT 9999 BKN110/// 07/01 Q0996 BLU
  • 140925Z AUTO 25012KT 9999 NCD 07/01 Q0998 BLU

TAF TAF EBCV
Valido dal 14 a 10 ore il 14 a 19 ore UTC


140841Z 1410/1419 26015G25KT 9999 SCT030
TEMPO 1410/1415 25015G30KT 6000 -RA/-SHRA SCT018 BKN020 BY EBWM



MetMap, La meteo Aeronautica in un colpo d'occhio ! - Copyright ORBIFLY Dicembre 2007 - Disclaimer

ORBIFLY MET'MAP TEAM :

Programmazione e sviluppo : Alexandra Zaïnal
Concezione : Baudouin d'Aumeries
Aiuto per la programmazione : Marc-Olivier Méhu
Supporto tecnico e logistico : Manuel Goepfert
Aiuto per la traduzione : Arnaldo La Scala

Contatto : metmap@orbifly.com




FONTI E CREDITI :

   NOAA